Las Palmas, Spain
Current Conditions -  °F | °C
As of 9:30 PM on Friday 19 Dec 2014 (Local Time) from GCLP Reporting Station
Broken Clouds Broken Clouds  
Wind Chill: 64°   Ceiling: 1800
Heat Index: 64°   Visibility: 6mi
Dew Point: 57°   Wind: 9mph
Humidity: 77%   Direction: 360°N
Pressure: 30.36"   Gusts: NA
Location:  28.12°N, 15.43°W
Report Text: GCLP 192130Z 36008KT 9999 FEW012 BKN018 18/14 Q1028 NOSIG
Loading
Personal Weather Stations






























Interactive Weather Map New forecast layout! Learn more

10-Day Weather Forecast

Advertisements
Track Severe Weather on mobile